Time;durP1;ratioP1;P1;durP2;ratioP2;P2;SDS_P1;SDS_P2;PMS_P1;PMS_P2;Temp;Humidity;BMP_temperature;BMP_pressure;BME280_temperature;BME280_humidity;BME280_pressure;Samples;Min_cycle;Max_cycle;Signal;HPM_P1;HPM_P2
2023/08/10 00:02:13;;;;;;;2.70;2.07;;;;;;;17.80;100.00;100595.88;5000593;28;20221;-77
2023/08/10 00:04:39;;;;;;;2.30;2.20;;;;;;;17.79;100.00;100588.06;4987329;28;20181;-76
2023/08/10 00:07:04;;;;;;;1.90;1.80;;;;;;;17.75;100.00;100589.94;4988799;28;20309;-75
2023/08/10 00:09:30;;;;;;;2.17;1.97;;;;;;;17.73;100.00;100594.34;4984364;28;20188;-76
2023/08/10 00:11:55;;;;;;;2.17;1.97;;;;;;;17.70;100.00;100596.22;4986514;28;20223;-77
2023/08/10 00:14:21;;;;;;;2.70;1.90;;;;;;;17.65;100.00;100592.00;4988291;28;20665;-76
2023/08/10 00:16:46;;;;;;;2.10;2.00;;;;;;;17.63;100.00;100592.97;4990236;28;20181;-78
2023/08/10 00:19:11;;;;;;;2.33;2.17;;;;;;;17.58;100.00;100592.25;4988189;28;20287;-77
2023/08/10 00:21:36;;;;;;;2.87;2.20;;;;;;;17.52;100.00;100595.94;4987315;28;20247;-76
2023/08/10 00:24:02;;;;;;;2.83;2.37;;;;;;;17.47;100.00;100597.88;4990392;28;20189;-77
2023/08/10 00:26:28;;;;;;;2.27;2.17;;;;;;;17.42;100.00;100598.00;4987926;28;20228;-77
2023/08/10 00:28:57;;;;;;;2.10;2.00;;;;;;;17.39;100.00;100603.34;4984590;28;20232;-78
2023/08/10 00:31:22;;;;;;;1.90;1.80;;;;;;;17.35;100.00;100609.56;4985500;28;20936;-77
2023/08/10 00:33:47;;;;;;;2.00;1.90;;;;;;;17.30;100.00;100609.72;5000787;28;20193;-77
2023/08/10 00:36:15;;;;;;;2.27;2.07;;;;;;;17.27;100.00;100603.72;4987817;28;20217;-77
2023/08/10 00:38:41;;;;;;;2.20;2.00;;;;;;;17.23;100.00;100604.75;4980092;28;20736;-77
2023/08/10 00:41:08;;;;;;;2.53;2.27;;;;;;;17.16;100.00;100604.91;4987704;28;20300;-77
2023/08/10 00:43:33;;;;;;;2.70;2.47;;;;;;;17.11;100.00;100608.59;4990575;28;20222;-77
2023/08/10 00:45:59;;;;;;;2.47;2.20;;;;;;;17.04;100.00;100602.69;4992261;28;20237;-76
2023/08/10 00:48:25;;;;;;;2.53;2.37;;;;;;;16.99;100.00;100608.06;4986494;28;20185;-78
2023/08/10 00:50:52;;;;;;;1.97;1.87;;;;;;;16.94;100.00;100607.31;4980417;28;20328;-77
2023/08/10 00:53:18;;;;;;;2.17;2.00;;;;;;;16.89;100.00;100602.22;4984120;28;20287;-77
2023/08/10 00:55:46;;;;;;;2.03;1.90;;;;;;;16.83;100.00;100612.84;4981941;28;20286;-76
2023/08/10 00:58:14;;;;;;;3.17;2.50;;;;;;;16.77;100.00;100608.66;4986165;28;20196;-76
2023/08/10 01:00:39;;;;;;;2.17;2.07;;;;;;;16.73;100.00;100606.19;4985463;28;20205;-76
2023/08/10 01:03:05;;;;;;;2.60;2.40;;;;;;;16.71;100.00;100608.00;4983996;28;20181;-77
2023/08/10 01:05:50;;;;;;;2.53;2.20;;;;;;;16.68;100.00;100608.97;4983661;28;20235;-76
2023/08/10 01:08:31;;;;;;;2.60;2.37;;;;;;;16.63;100.00;100616.06;4983656;28;20231;-76
2023/08/10 01:11:23;;;;;;;2.53;2.20;;;;;;;16.58;100.00;100617.94;4987826;28;20225;-76
2023/08/10 01:14:21;;;;;;;3.87;2.47;;;;;;;16.52;100.00;100613.75;4986242;28;20189;-76
2023/08/10 01:16:51;;;;;;;2.10;2.00;;;;;;;16.45;100.00;100609.63;4980194;28;20194;-77
2023/08/10 01:19:28;;;;;;;2.27;2.10;;;;;;;16.40;100.00;100609.75;4983331;28;20220;-77
2023/08/10 01:22:05;;;;;;;2.37;1.97;;;;;;;16.37;100.00;100607.22;4985571;28;20304;-77
2023/08/10 01:24:39;;;;;;;2.90;2.30;;;;;;;16.34;100.00;100609.03;4987708;28;20193;-78
2023/08/10 01:27:05;;;;;;;2.10;2.00;;;;;;;16.30;100.00;100616.97;4988995;28;20234;-77
2023/08/10 01:29:30;;;;;;;2.67;2.43;;;;;;;16.27;100.00;100614.44;4984171;28;20181;-77
2023/08/10 01:31:56;;;;;;;2.73;2.47;;;;;;;16.26;100.00;100604.06;4989159;28;21059;-79
2023/08/10 01:34:23;;;;;;;2.03;1.93;;;;;;;16.24;100.00;100608.47;4982774;28;20684;-78
2023/08/10 01:36:49;;;;;;;4.50;2.70;;;;;;;16.21;100.00;100606.78;4989486;28;20730;-76
2023/08/10 01:39:14;;;;;;;2.40;2.23;;;;;;;16.18;100.00;100608.63;4986847;28;20185;-76
2023/08/10 01:41:39;;;;;;;2.50;2.30;;;;;;;16.13;100.00;100604.38;4982706;28;20241;-75
2023/08/10 01:44:05;;;;;;;2.50;2.30;;;;;;;16.07;100.00;100606.28;4987881;28;20243;-76
2023/08/10 01:46:36;;;;;;;2.70;2.50;;;;;;;15.99;100.00;100601.28;4985318;28;20205;-76
2023/08/10 01:49:08;;;;;;;2.37;2.17;;;;;;;15.92;100.00;100600.56;4988150;28;20231;-78
2023/08/10 01:51:34;;;;;;;2.50;2.30;;;;;;;15.86;100.00;100605.97;4987072;28;20204;-77
2023/08/10 01:54:03;;;;;;;2.50;2.30;;;;;;;15.81;100.00;100608.66;4989126;28;20653;-77
2023/08/10 01:56:29;;;;;;;2.40;2.20;;;;;;;15.79;100.00;100613.06;4987935;28;20190;-77
2023/08/10 01:58:54;;;;;;;2.70;2.50;;;;;;;15.76;100.00;100610.53;4992151;28;20193;-77
2023/08/10 02:01:19;;;;;;;2.77;2.57;;;;;;;15.73;100.00;100617.59;5002219;28;20307;-77
2023/08/10 02:03:45;;;;;;;2.70;2.50;;;;;;;15.68;100.00;100612.47;4988659;28;20192;-76
2023/08/10 02:06:10;;;;;;;2.70;2.50;;;;;;;15.65;100.00;100618.63;4982311;28;20705;-75
2023/08/10 02:08:35;;;;;;;2.30;2.10;;;;;;;15.62;100.00;100626.53;4984119;28;20201;-77
2023/08/10 02:11:01;;;;;;;2.40;2.20;;;;;;;15.58;100.00;100624.03;4979327;28;20326;-77
2023/08/10 02:13:26;;;;;;;2.63;2.27;;;;;;;15.54;100.00;100625.88;4988183;28;20205;-77
2023/08/10 02:15:51;;;;;;;2.33;2.13;;;;;;;15.50;100.00;100621.59;5002933;28;20265;-76
2023/08/10 02:18:20;;;;;;;2.77;2.40;;;;;;;15.46;100.00;100626.06;4988191;28;20257;-77
2023/08/10 02:20:45;;;;;;;2.57;2.00;;;;;;;15.45;100.00;100631.28;4985665;28;20729;-77
2023/08/10 02:23:11;;;;;;;2.00;1.90;;;;;;;15.41;100.00;100630.50;4985895;28;20271;-77
2023/08/10 02:25:36;;;;;;;2.70;2.50;;;;;;;15.38;100.00;100626.22;4982418;28;20218;-78
2023/08/10 02:28:01;;;;;;;3.23;2.43;;;;;;;15.34;100.00;100627.19;5000676;28;20300;-78
2023/08/10 02:30:27;;;;;;;2.73;2.53;;;;;;;15.30;100.00;100628.16;4982215;28;20192;-77
2023/08/10 02:32:52;;;;;;;2.50;2.30;;;;;;;15.24;100.00;100636.97;4986643;28;20579;-78
2023/08/10 02:35:20;;;;;;;2.47;2.27;;;;;;;15.21;100.00;100625.75;4986196;28;20210;-77
2023/08/10 02:37:45;;;;;;;2.63;2.43;;;;;;;15.19;100.00;100627.53;4989229;28;20199;-78
2023/08/10 02:40:11;;;;;;;2.87;2.57;;;;;;;15.19;100.00;100627.53;4987774;28;20192;-77
2023/08/10 02:42:38;;;;;;;3.20;2.33;;;;;;;15.17;100.00;100624.09;4980801;28;20250;-78
2023/08/10 02:45:04;;;;;;;2.60;2.37;;;;;;;15.15;100.00;100621.53;4984678;28;20227;-76
2023/08/10 02:47:29;;;;;;;2.83;2.63;;;;;;;15.15;100.00;100618.06;4987814;28;20213;-78
2023/08/10 02:49:54;;;;;;;2.80;2.53;;;;;;;15.13;100.00;100618.13;4990444;28;20284;-77
2023/08/10 02:52:20;;;;;;;2.93;2.67;;;;;;;15.13;100.00;100625.06;4982496;28;20211;-77
2023/08/10 02:54:47;;;;;;;2.50;2.30;;;;;;;15.13;100.00;100615.50;4985920;28;20207;-77
2023/08/10 02:57:13;;;;;;;3.03;2.70;;;;;;;15.13;100.00;100618.13;4986465;28;20608;-77
2023/08/10 02:59:38;;;;;;;2.90;2.70;;;;;;;15.15;100.00;100621.53;4991217;28;20191;-77
2023/08/10 03:02:05;;;;;;;3.07;2.70;;;;;;;15.16;100.00;100627.59;4986422;28;20297;-78
2023/08/10 03:04:30;;;;;;;2.97;2.77;;;;;;;15.16;100.00;100625.00;4983146;28;20185;-77
2023/08/10 03:06:55;;;;;;;4.40;2.73;;;;;;;15.17;100.00;100631.94;4985034;28;20217;-78
2023/08/10 03:09:21;;;;;;;2.57;2.37;;;;;;;15.17;100.00;100634.53;4986226;28;20192;-77
2023/08/10 03:11:46;;;;;;;2.60;2.40;;;;;;;15.16;100.00;100640.63;4985381;28;20210;-76
2023/08/10 03:14:11;;;;;;;2.57;2.37;;;;;;;15.13;100.00;100636.38;4988862;28;20191;-76
2023/08/10 03:16:37;;;;;;;3.17;2.97;;;;;;;15.09;100.00;100637.31;4989123;28;20188;-77
2023/08/10 03:19:02;;;;;;;3.47;2.33;;;;;;;15.02;100.00;100646.19;4984211;28;20189;-76
2023/08/10 03:21:27;;;;;;;3.93;2.50;;;;;;;14.96;100.00;100641.06;4985193;28;20208;-76
2023/08/10 03:23:53;;;;;;;2.70;2.50;;;;;;;14.88;100.00;100646.47;4988092;28;20198;-78
2023/08/10 03:26:21;;;;;;;2.77;2.57;;;;;;;14.82;100.00;100642.22;4988743;28;20963;-77
2023/08/10 03:28:46;;;;;;;2.87;2.63;;;;;;;14.77;100.00;100644.06;4987099;28;20235;-77
2023/08/10 03:31:12;;;;;;;2.33;2.20;;;;;;;14.77;100.00;100641.47;4990506;28;20692;-77
2023/08/10 03:33:39;;;;;;;3.20;2.80;;;;;;;14.75;100.00;100641.50;4996892;28;20199;-76
2023/08/10 03:36:04;;;;;;;2.50;2.40;;;;;;;14.74;100.00;100638.94;4986684;28;20563;-77
2023/08/10 03:38:29;;;;;;;3.03;2.70;;;;;;;14.70;100.00;100640.72;4976687;28;20202;-77
2023/08/10 03:40:55;;;;;;;2.60;2.40;;;;;;;14.68;100.00;100645.09;4983737;28;20212;-76
2023/08/10 03:43:20;;;;;;;2.50;2.30;;;;;;;14.66;100.00;100639.06;5000384;28;20191;-77
2023/08/10 03:45:45;;;;;;;3.27;2.40;;;;;;;14.66;100.00;100646.00;4986332;28;20207;-76
2023/08/10 03:48:11;;;;;;;2.70;2.50;;;;;;;14.66;100.00;100654.69;4984371;28;20277;-76
2023/08/10 03:50:36;;;;;;;2.50;2.30;;;;;;;14.64;100.00;100646.91;4980745;28;20221;-77
2023/08/10 03:53:01;;;;;;;3.40;2.30;;;;;;;14.63;100.00;100657.34;4984816;28;20192;-77
2023/08/10 03:55:27;;;;;;;3.27;2.60;;;;;;;14.61;100.00;100654.75;4991151;28;20734;-77
2023/08/10 03:57:52;;;;;;;2.63;2.43;;;;;;;14.60;100.00;100655.66;4988753;28;20194;-77
2023/08/10 04:00:17;;;;;;;2.40;2.20;;;;;;;14.60;100.00;100666.06;4984709;28;20273;-77
2023/08/10 04:02:44;;;;;;;2.47;2.27;;;;;;;14.60;100.00;100667.84;4985882;28;20313;-75
2023/08/10 04:05:10;;;;;;;3.03;2.83;;;;;;;14.58;100.00;100664.41;4988293;28;20234;-76
2023/08/10 04:07:39;;;;;;;2.60;2.40;;;;;;;14.59;100.00;100664.38;4986177;28;20234;-77
2023/08/10 04:10:06;;;;;;;2.73;2.43;;;;;;;14.58;100.00;100665.28;4993360;28;20709;-77
2023/08/10 04:12:34;;;;;;;2.70;2.50;;;;;;;14.58;100.00;100670.47;4985626;28;20208;-77
2023/08/10 04:14:59;;;;;;;2.90;2.70;;;;;;;14.57;100.00;100662.69;4988910;28;20189;-77
2023/08/10 04:17:25;;;;;;;3.67;2.77;;;;;;;14.59;100.00;100666.09;4981837;28;20291;-77
2023/08/10 04:19:50;;;;;;;2.70;2.50;;;;;;;14.59;100.00;100672.19;4990566;28;20686;-76
2023/08/10 04:22:15;;;;;;;2.43;2.27;;;;;;;14.60;100.00;100678.25;4984424;28;20215;-77
2023/08/10 04:24:41;;;;;;;3.03;2.73;;;;;;;14.58;100.00;100675.69;4986995;28;20615;-78
2023/08/10 04:27:06;;;;;;;2.70;2.40;;;;;;;14.59;100.00;100671.31;4991839;28;20235;-77
2023/08/10 04:29:34;;;;;;;2.80;2.60;;;;;;;14.62;100.00;100672.09;4988463;28;20204;-76
2023/08/10 04:32:03;;;;;;;2.70;2.50;;;;;;;14.69;100.00;100672.03;4988063;28;20208;-77
2023/08/10 04:34:32;;;;;;;2.60;2.40;;;;;;;14.76;100.00;100669.28;4982923;28;20203;-77
2023/08/10 04:36:57;;;;;;;2.80;2.60;;;;;;;14.82;100.00;100677.88;4990677;28;20818;-78
2023/08/10 04:39:23;;;;;;;2.53;2.33;;;;;;;14.86;100.00;100675.16;4981302;28;20185;-77
2023/08/10 04:41:48;;;;;;;2.67;2.47;;;;;;;14.89;100.00;100680.31;4990164;28;20320;-77
2023/08/10 04:44:18;;;;;;;2.50;2.30;;;;;;;14.94;100.00;100677.59;4984521;28;20195;-75
2023/08/10 04:46:44;;;;;;;2.90;2.70;;;;;;;14.99;100.00;100677.50;4989032;28;20263;-75
2023/08/10 04:49:10;;;;;;;2.63;2.53;;;;;;;15.03;100.00;100679.16;4987406;28;20190;-77
2023/08/10 04:51:36;;;;;;;2.47;2.20;;;;;;;15.06;100.00;100682.56;4985515;28;20768;-77
2023/08/10 04:54:02;;;;;;;2.97;2.67;;;;;;;15.10;100.00;100680.75;4989510;28;20189;-77
2023/08/10 04:56:27;;;;;;;2.73;2.53;;;;;;;15.14;100.00;100679.78;4992337;28;20658;-78
2023/08/10 04:58:53;;;;;;;2.80;2.60;;;;;;;15.20;100.00;100684.00;4991657;28;20770;-78
2023/08/10 05:01:18;;;;;;;2.97;2.77;;;;;;;15.26;100.00;100686.50;4993876;28;20247;-76
2023/08/10 05:03:43;;;;;;;2.97;2.70;;;;;;;15.29;100.00;100689.00;4993478;28;20201;-77
2023/08/10 05:06:09;;;;;;;2.70;2.50;;;;;;;15.33;100.00;100689.81;4997675;28;20207;-77
2023/08/10 05:08:34;;;;;;;3.00;2.63;;;;;;;15.38;100.00;100694.03;4991596;28;20192;-77
2023/08/10 05:11:00;;;;;;;3.57;2.70;;;;;;;15.50;100.00;100692.03;4991591;28;20201;-77
2023/08/10 05:13:25;;;;;;;3.10;2.80;;;;;;;15.60;100.00;100698.75;4993784;28;20728;-77
2023/08/10 05:15:50;;;;;;;3.03;2.73;;;;;;;15.70;100.00;100696.78;5001222;28;20188;-76
2023/08/10 05:18:20;;;;;;;2.80;2.60;;;;;;;15.79;100.00;100707.03;4993750;28;20225;-77
2023/08/10 05:20:45;;;;;;;4.67;3.23;;;;;;;15.85;100.00;100706.03;4992306;28;20284;-77
2023/08/10 05:23:11;;;;;;;3.13;2.50;;;;;;;15.89;100.00;100704.19;4986486;28;20361;-77
2023/08/10 05:25:36;;;;;;;3.80;3.00;;;;;;;15.95;100.00;100711.91;4988975;28;20243;-77
2023/08/10 05:28:02;;;;;;;4.70;3.33;;;;;;;15.98;100.00;100720.50;4984738;28;20244;-76
2023/08/10 05:30:27;;;;;;;3.17;2.87;;;;;;;16.04;100.00;100711.66;4990031;28;20181;-76
2023/08/10 05:32:52;;;;;;;3.60;2.97;;;;;;;16.10;100.00;100710.66;4989912;28;20239;-78
2023/08/10 05:35:18;;;;;;;3.33;3.03;;;;;;;16.19;100.00;100712.16;4984761;28;20189;-78
2023/08/10 05:37:43;;;;;;;3.37;2.60;;;;;;;16.25;100.00;100707.66;4989745;28;20190;-78
2023/08/10 05:40:11;;;;;;;4.43;2.80;;;;;;;16.27;100.00;100715.44;4983659;28;20193;-77
2023/08/10 05:42:37;;;;;;;2.80;2.60;;;;;;;16.33;100.00;100711.81;4983092;28;20594;-77
2023/08/10 05:45:03;;;;;;;2.70;2.50;;;;;;;16.39;100.00;100719.47;4999932;28;20629;-78
2023/08/10 05:47:29;;;;;;;2.80;2.60;;;;;;;16.48;100.00;100724.47;4990918;28;20409;-78
2023/08/10 05:49:54;;;;;;;3.13;2.30;;;;;;;16.59;100.00;100725.03;4988277;28;20193;-77
2023/08/10 05:52:19;;;;;;;2.90;2.70;;;;;;;16.87;100.00;100724.28;4988482;28;20208;-77
2023/08/10 05:54:44;;;;;;;3.13;2.83;;;;;;;17.65;100.00;100727.25;4983818;28;20201;-77
2023/08/10 05:57:10;;;;;;;3.63;2.77;;;;;;;18.56;100.00;100729.50;4992230;28;20185;-77
2023/08/10 05:59:35;;;;;;;5.10;2.97;;;;;;;19.46;100.00;100734.09;4981143;28;20291;-77
2023/08/10 06:02:01;;;;;;;4.43;2.43;;;;;;;20.25;100.00;100727.44;4994196;28;20243;-77
2023/08/10 06:04:27;;;;;;;5.23;2.30;;;;;;;20.76;99.47;100737.59;4982898;28;20558;-78
2023/08/10 06:06:52;;;;;;;2.97;2.07;;;;;;;21.21;97.79;100743.44;4979605;28;20209;-78
2023/08/10 06:09:19;;;;;;;3.93;2.47;;;;;;;21.39;96.55;100750.50;4988082;28;20194;-78
2023/08/10 06:11:45;;;;;;;2.53;2.13;;;;;;;21.68;94.85;100747.44;4979897;28;20200;-78
2023/08/10 06:14:10;;;;;;;6.63;2.57;;;;;;;22.13;93.86;100766.31;5000790;28;20279;-77
2023/08/10 06:16:35;;;;;;;5.40;2.97;;;;;;;22.44;91.77;100760.38;4991411;28;20963;-77
2023/08/10 06:19:04;;;;;;;3.83;2.40;;;;;;;22.88;89.86;100753.69;4993101;28;20228;-77
2023/08/10 06:21:29;;;;;;;5.10;2.70;;;;;;;22.98;88.34;100747.03;4979954;28;20215;-77
2023/08/10 06:23:57;;;;;;;4.23;2.37;;;;;;;22.89;89.12;100757.22;4999675;28;20189;-77
2023/08/10 06:26:22;;;;;;;4.33;2.50;;;;;;;22.83;89.47;100755.75;4977142;28;20365;-77
2023/08/10 06:28:48;;;;;;;5.93;2.80;;;;;;;23.32;87.25;100760.19;4986652;28;20206;-76
2023/08/10 06:31:16;;;;;;;4.63;2.53;;;;;;;23.54;86.67;100756.34;4979990;28;20264;-77
2023/08/10 06:33:41;;;;;;;3.40;2.60;;;;;;;23.72;86.19;100755.31;4985119;28;20188;-77
2023/08/10 06:36:11;;;;;;;3.67;2.97;;;;;;;23.93;84.97;100756.81;4987900;28;20185;-79
2023/08/10 06:38:37;;;;;;;4.45;2.53;;;;;;;24.16;84.43;100755.50;4989555;28;20204;-78
2023/08/10 06:41:02;;;;;;;3.88;2.47;;;;;;;24.48;83.27;100752.72;4989249;28;20208;-78
2023/08/10 06:43:29;;;;;;;3.35;2.20;;;;;;;24.75;83.13;100759.97;4996889;28;20563;-79
2023/08/10 06:45:55;;;;;;;4.47;2.13;;;;;;;25.02;81.50;100759.22;4990825;28;20208;-77
2023/08/10 06:48:20;;;;;;;2.40;1.67;;;;;;;25.13;81.81;100754.09;4988714;28;20185;-76
2023/08/10 06:50:45;;;;;;;2.17;1.90;;;;;;;25.63;79.61;100758.94;4983479;28;20209;-77
2023/08/10 06:53:11;;;;;;;2.60;2.20;;;;;;;26.03;76.76;100753.66;4987511;28;20189;-76
2023/08/10 06:55:38;;;;;;;3.28;2.17;;;;;;;26.12;76.76;100760.16;4980530;28;20193;-77
2023/08/10 06:58:04;;;;;;;2.70;1.92;;;;;;;26.00;77.13;100761.81;4981769;28;21120;-77
2023/08/10 07:00:29;;;;;;;2.70;1.73;;;;;;;25.98;77.55;100761.91;4983892;28;20189;-77
2023/08/10 07:02:54;;;;;;;2.55;1.98;;;;;;;26.15;76.62;100762.63;4987785;28;20744;-76
2023/08/10 07:05:21;;;;;;;2.72;2.05;;;;;;;26.39;75.41;100768.06;4980493;28;20200;-76
2023/08/10 07:07:47;;;;;;;2.28;1.98;;;;;;;26.28;75.92;100757.31;4997671;28;20194;-77
2023/08/10 07:10:13;;;;;;;4.55;2.20;;;;;;;26.24;75.71;100767.28;4981755;28;20239;-76
2023/08/10 07:12:38;;;;;;;3.83;2.05;;;;;;;26.06;76.04;100763.19;4988559;28;21010;-77
2023/08/10 07:15:04;;;;;;;3.78;2.88;;;;;;;24.93;77.54;100769.41;4980836;28;20188;-77
2023/08/10 07:17:30;;;;;;;4.38;2.28;;;;;;;25.29;78.59;100763.72;4984385;28;20216;-77
2023/08/10 07:19:55;;;;;;;3.42;2.05;;;;;;;25.14;78.87;100765.53;4987889;28;20239;-76
2023/08/10 07:22:21;;;;;;;3.00;2.10;;;;;;;25.68;78.08;100775.38;4977854;28;20264;-76
2023/08/10 07:24:49;;;;;;;2.78;2.17;;;;;;;25.78;77.70;100763.25;4975341;28;20812;-78
2023/08/10 07:27:15;;;;;;;2.90;1.85;;;;;;;25.78;77.78;100765.03;4976217;28;20692;-75
2023/08/10 07:29:40;;;;;;;2.30;2.05;;;;;;;25.54;77.82;100766.53;4986082;28;20250;-77
2023/08/10 07:32:07;;;;;;;2.40;2.20;;;;;;;25.64;78.11;100768.59;4987547;28;20209;-76
2023/08/10 07:34:32;;;;;;;2.30;2.10;;;;;;;25.16;78.77;100764.50;4976285;28;20948;-76
2023/08/10 07:37:00;;;;;;;5.40;2.03;;;;;;;25.49;78.50;100760.66;4977734;28;20189;-77
2023/08/10 07:39:26;;;;;;;2.15;1.90;;;;;;;25.87;76.96;100765.28;4993752;28;20239;-77
2023/08/10 07:41:52;;;;;;;2.80;2.10;;;;;;;26.00;76.77;100767.97;4976809;28;20209;-77
2023/08/10 07:44:18;;;;;;;2.38;1.98;;;;;;;25.80;77.92;100771.91;4983546;28;20629;-77
2023/08/10 07:46:46;;;;;;;2.33;1.98;;;;;;;26.23;77.21;100762.94;4980810;28;20202;-78
2023/08/10 07:49:12;;;;;;;2.58;1.90;;;;;;;26.55;75.62;100759.88;4990874;28;20254;-78
2023/08/10 07:51:43;;;;;;;2.15;1.92;;;;;;;26.51;75.96;100765.53;4974367;28;20626;-77
2023/08/10 07:54:08;;;;;;;3.72;2.35;;;;;;;26.32;76.27;100762.31;4984470;28;20203;-77
2023/08/10 07:56:34;;;;;;;3.65;1.77;;;;;;;26.37;77.18;100758.50;4979567;28;20561;-77
2023/08/10 07:59:00;;;;;;;2.50;1.95;;;;;;;26.48;77.42;100751.50;4988749;28;20580;-77
2023/08/10 08:01:28;;;;;;;3.88;2.15;;;;;;;26.73;75.84;100747.13;4981787;28;20304;-77
2023/08/10 08:03:53;;;;;;;2.85;1.98;;;;;;;26.56;76.66;100745.66;4981506;28;20189;-77
2023/08/10 08:06:18;;;;;;;1.80;1.70;;;;;;;26.50;77.56;100746.09;4988640;28;20303;-78
2023/08/10 08:08:44;;;;;;;2.72;1.73;;;;;;;26.57;76.57;100741.19;4987988;28;20218;-76
2023/08/10 08:11:09;;;;;;;3.22;2.42;;;;;;;26.98;74.81;100747.25;4978654;28;20209;-78
2023/08/10 08:13:34;;;;;;;2.20;2.00;;;;;;;26.82;75.38;100748.31;4982050;28;20195;-77
2023/08/10 08:16:00;;;;;;;2.70;2.05;;;;;;;26.12;77.32;100753.03;4983530;28;20673;-77
2023/08/10 08:18:55;;;;;;;2.70;1.83;;;;;;;26.11;77.23;100750.50;4997016;28;20182;-77
2023/08/10 08:21:25;;;;;;;2.28;2.10;;;;;;;26.12;77.73;100755.69;4975814;28;20213;-77
2023/08/10 08:23:51;;;;;;;1.85;1.75;;;;;;;26.12;78.28;100755.69;4981901;28;20184;-79
2023/08/10 08:26:20;;;;;;;3.13;2.22;;;;;;;26.21;78.16;100748.09;4978257;28;20202;-77
2023/08/10 08:28:47;;;;;;;2.70;1.85;;;;;;;26.20;77.72;100747.22;5000988;28;20186;-76
2023/08/10 08:31:13;;;;;;;2.97;2.58;;;;;;;26.19;77.54;100748.19;4991341;28;20208;-76
2023/08/10 08:33:41;;;;;;;2.78;2.28;;;;;;;26.06;76.82;100744.63;4989580;28;20191;-78
2023/08/10 08:36:07;;;;;;;3.50;3.05;;;;;;;25.52;79.12;100736.63;4978622;28;20190;-78
2023/08/10 08:38:33;;;;;;;2.60;2.40;;;;;;;25.21;79.66;100740.38;4988930;28;20192;-78
2023/08/10 08:41:06;;;;;;;2.92;2.60;;;;;;;25.16;79.84;100739.78;4985951;28;20762;-77
2023/08/10 08:43:32;;;;;;;2.93;2.40;;;;;;;24.96;81.19;100731.31;4997044;28;20204;-76
2023/08/10 08:45:58;;;;;;;2.87;2.67;;;;;;;24.93;82.08;100732.34;4992622;28;20257;-78
2023/08/10 08:48:27;;;;;;;3.47;3.03;;;;;;;24.71;82.19;100740.78;4983969;28;20325;-76
2023/08/10 08:50:52;;;;;;;3.60;2.63;;;;;;;24.50;82.59;100743.75;5001971;28;20247;-77
2023/08/10 08:53:18;;;;;;;3.80;2.50;;;;;;;24.38;83.25;100744.50;4988431;28;20692;-76
2023/08/10 08:55:46;;;;;;;3.77;2.70;;;;;;;24.21;84.40;100734.94;4994299;28;20311;-77
2023/08/10 08:58:16;;;;;;;4.50;2.87;;;;;;;24.16;85.05;100742.28;4990416;28;20247;-77
2023/08/10 09:00:52;;;;;;;4.63;2.73;;;;;;;24.21;87.43;100732.28;4989328;28;20509;-77
2023/08/10 09:03:22;;;;;;;4.30;2.87;;;;;;;24.22;87.91;100734.00;4986462;28;20722;-77
2023/08/10 09:05:51;;;;;;;3.10;2.60;;;;;;;24.22;87.89;100727.81;4984942;28;20233;-76
2023/08/10 09:08:19;;;;;;;3.63;2.57;;;;;;;24.23;87.53;100722.47;4991848;28;20186;-77
2023/08/10 09:10:46;;;;;;;2.97;2.77;;;;;;;24.23;88.05;100722.47;4986967;28;20213;-77
2023/08/10 09:13:16;;;;;;;2.97;2.67;;;;;;;24.33;85.83;100714.84;4991140;28;20581;-78
2023/08/10 09:15:41;;;;;;;2.93;2.73;;;;;;;24.30;86.56;100717.66;5005974;28;20752;-79
2023/08/10 09:18:06;;;;;;;2.40;2.20;;;;;;;24.25;86.84;100719.72;5000044;28;20176;-76
2023/08/10 09:20:32;;;;;;;3.30;2.70;;;;;;;24.29;87.53;100708.88;4986785;28;20178;-76
2023/08/10 09:23:01;;;;;;;3.40;2.40;;;;;;;24.29;87.67;100706.22;4993887;28;20578;-78
2023/08/10 09:25:34;;;;;;;3.57;2.30;;;;;;;24.37;88.07;100696.97;5006731;28;20244;-76
2023/08/10 09:27:59;;;;;;;2.80;2.60;;;;;;;24.32;87.88;100699.91;4991465;28;20201;-77
2023/08/10 09:30:25;;;;;;;2.77;2.57;;;;;;;24.37;88.40;100694.34;4994404;28;20180;-77
2023/08/10 09:32:50;;;;;;;2.50;2.30;;;;;;;24.40;88.16;100686.22;4993398;28;20174;-78
2023/08/10 09:35:17;;;;;;;2.73;2.53;;;;;;;24.45;87.67;100685.00;4989926;28;20192;-78
2023/08/10 09:37:44;;;;;;;3.27;2.63;;;;;;;24.45;87.23;100685.00;4986414;28;20660;-78
2023/08/10 09:40:15;;;;;;;3.00;2.70;;;;;;;24.45;85.84;100684.13;5011296;28;20208;-78
2023/08/10 09:42:41;;;;;;;2.90;2.47;;;;;;;24.32;84.20;100686.69;4991260;28;20197;-77
2023/08/10 09:45:12;;;;;;;3.17;2.87;;;;;;;23.62;86.13;100682.81;4985585;28;20223;-78
2023/08/10 09:47:41;;;;;;;4.23;3.07;;;;;;;23.53;88.00;100678.91;4985329;28;20267;-78
2023/08/10 09:50:16;;;;;;;3.53;2.77;;;;;;;23.81;87.09;100681.75;4988253;28;20208;-77
2023/08/10 09:52:43;;;;;;;3.50;2.93;;;;;;;23.91;85.50;100669.69;4997328;28;20633;-77
2023/08/10 09:55:10;;;;;;;4.47;3.47;;;;;;;23.42;86.44;100666.28;4981604;28;20576;-77
2023/08/10 09:57:43;;;;;;;3.20;2.70;;;;;;;23.57;86.42;100663.72;4992388;28;20579;-78
2023/08/10 10:00:15;;;;;;;2.63;2.43;;;;;;;23.53;86.56;100670.97;5000494;28;20177;-76
2023/08/10 10:02:41;;;;;;;3.50;2.83;;;;;;;23.60;85.48;100677.59;4980470;28;21061;-76
2023/08/10 10:05:07;;;;;;;2.70;2.50;;;;;;;23.44;85.41;100666.22;4980482;28;20200;-76
2023/08/10 10:07:33;;;;;;;2.77;2.57;;;;;;;23.75;85.22;100662.66;4986332;28;20221;-77
2023/08/10 10:09:59;;;;;;;3.03;2.23;;;;;;;23.82;83.64;100664.94;4986339;28;20181;-77
2023/08/10 10:12:25;;;;;;;4.30;2.70;;;;;;;23.64;83.80;100666.84;4990390;28;20243;-77
2023/08/10 10:14:52;;;;;;;3.40;2.67;;;;;;;23.85;83.34;100670.03;4984665;28;20217;-76
2023/08/10 10:17:18;;;;;;;2.80;2.50;;;;;;;24.06;84.07;100657.34;4986755;28;20196;-76
2023/08/10 10:19:45;;;;;;;3.57;2.40;;;;;;;24.23;84.01;100671.34;4990110;28;20189;-76
2023/08/10 10:22:11;;;;;;;2.67;2.47;;;;;;;24.29;84.17;100668.34;4996481;28;20205;-78
2023/08/10 10:24:43;;;;;;;3.37;2.83;;;;;;;24.33;84.68;100656.66;4979593;28;20203;-77
2023/08/10 10:27:11;;;;;;;2.83;2.63;;;;;;;24.40;83.91;100651.84;4983222;28;20696;-76
2023/08/10 10:29:56;;;;;;;2.70;2.50;;;;;;;24.59;82.83;100660.31;4989118;28;20193;-76
2023/08/10 10:32:23;;;;;;;2.53;2.33;;;;;;;23.98;81.83;100649.88;4980273;28;20214;-78
2023/08/10 10:34:50;;;;;;;5.67;2.40;;;;;;;23.64;83.45;100654.50;4991143;28;21014;-77
2023/08/10 10:37:29;;;;;;;2.63;2.43;;;;;;;23.75;83.72;100651.22;4982540;28;20262;-78
2023/08/10 10:40:14;;;;;;;4.40;3.00;;;;;;;23.73;83.16;100647.84;4977484;28;20184;-78
2023/08/10 10:43:01;;;;;;;2.97;2.50;;;;;;;23.59;81.65;100638.94;4977744;28;20752;-78
2023/08/10 10:45:27;;;;;;;2.87;2.60;;;;;;;23.93;81.49;100641.38;4990481;28;20678;-77
2023/08/10 10:47:54;;;;;;;2.70;2.50;;;;;;;23.78;80.67;100632.53;4978240;28;20233;-77
2023/08/10 10:50:23;;;;;;;2.80;2.60;;;;;;;23.84;80.05;100631.31;4985192;28;20216;-77
2023/08/10 10:53:02;;;;;;;3.63;2.40;;;;;;;23.69;79.58;100622.53;4977317;28;20188;-76
2023/08/10 10:55:36;;;;;;;2.43;2.23;;;;;;;23.88;80.30;100617.00;4982066;28;20235;-76
2023/08/10 10:58:03;;;;;;;5.13;2.30;;;;;;;23.69;80.08;100612.78;4984432;28;20659;-76
2023/08/10 11:00:29;;;;;;;3.03;2.80;;;;;;;23.60;80.33;100611.53;4981050;28;20196;-77
2023/08/10 11:02:55;;;;;;;4.27;2.80;;;;;;;23.78;80.18;100613.22;4987187;28;20201;-78
2023/08/10 11:05:21;;;;;;;2.90;2.43;;;;;;;23.71;77.47;100615.38;4992060;28;20189;-77
2023/08/10 11:07:49;;;;;;;2.50;2.30;;;;;;;23.81;77.77;100605.94;4988864;28;20197;-77
2023/08/10 11:10:16;;;;;;;3.00;2.30;;;;;;;23.92;75.86;100600.03;4989318;28;20282;-76
2023/08/10 11:12:44;;;;;;;3.37;2.30;;;;;;;23.85;73.80;100599.53;4981363;28;20208;-78
2023/08/10 11:15:12;;;;;;;3.23;2.57;;;;;;;23.86;72.84;100601.25;4984438;28;20193;-77
2023/08/10 11:17:38;;;;;;;2.50;2.23;;;;;;;23.72;75.18;100599.41;4989649;28;20184;-78
2023/08/10 11:20:12;;;;;;;3.83;2.53;;;;;;;23.69;74.99;100598.75;4988219;28;20204;-76
2023/08/10 11:22:58;;;;;;;4.33;2.13;;;;;;;23.97;75.94;100589.19;4992009;28;20278;-75